Walum, North Dakota
Current Conditions -  °F | °C
As of 3:55 AM on Saturday 01 Nov 2014 (Local Time) from KBAC Reporting Station
Unknown Precip Unknown Precip  
Wind Chill: 17°   Ceiling: Unl
Heat Index: 28°   Visibility: 10mi
Dew Point: 19°   Wind: 14mph
Humidity: 69%   Direction: 160°SSE
Pressure: 30.17"   Gusts: 22mph
Location:  47.2843°N, 98.1073°W
Report Text: KBAC 010855Z AUTO 16012G19KT 10SM UP CLR M02/M07 A3017 RMK AO2
Loading
Personal Weather Stations






























Interactive Weather Map
Tropical Storm Tracking
New forecast layout! Learn more

10-Day Weather Forecast

Advertisements
Track Severe Weather on mobile